sensor_id;sensor_type;location;lat;lon;timestamp;pressure;altitude;pressure_sealevel;temperature;humidity
70407;BME280;57821;52.202;0.154;2023-07-22T00:00:39;101341.13;;;17.28;65.31
70407;BME280;57821;52.202;0.154;2023-07-22T00:03:05;101336.81;;;17.24;66.12
70407;BME280;57821;52.202;0.154;2023-07-22T00:05:32;101337.81;;;17.18;65.92
70407;BME280;57821;52.202;0.154;2023-07-22T00:07:59;101348.28;;;17.18;65.82
70407;BME280;57821;52.202;0.154;2023-07-22T00:10:26;101341.34;;;17.17;66.26
70407;BME280;57821;52.202;0.154;2023-07-22T00:12:52;101343.19;;;17.12;66.35
70407;BME280;57821;52.202;0.154;2023-07-22T00:15:19;101340.66;;;17.08;66.23
70407;BME280;57821;52.202;0.154;2023-07-22T00:17:46;101337.16;;;17.09;66.98
70407;BME280;57821;52.202;0.154;2023-07-22T00:20:12;101326.78;;;17.04;66.68
70407;BME280;57821;52.202;0.154;2023-07-22T00:22:39;101336.38;;;17.05;66.98
70407;BME280;57821;52.202;0.154;2023-07-22T00:25:10;101325.19;;;16.97;66.95
70407;BME280;57821;52.202;0.154;2023-07-22T00:27:38;101340.00;;;16.98;67.23
70407;BME280;57821;52.202;0.154;2023-07-22T00:30:06;101338.38;;;16.94;67.10
70407;BME280;57821;52.202;0.154;2023-07-22T00:32:33;101335.75;;;16.93;67.71
70407;BME280;57821;52.202;0.154;2023-07-22T00:35:00;101333.25;;;16.88;67.47
70407;BME280;57821;52.202;0.154;2023-07-22T00:37:27;101335.03;;;16.86;67.61
70407;BME280;57821;52.202;0.154;2023-07-22T00:39:53;101324.63;;;16.83;67.34
70407;BME280;57821;52.202;0.154;2023-07-22T00:42:20;101322.03;;;16.81;67.61
70407;BME280;57821;52.202;0.154;2023-07-22T00:44:46;101311.69;;;16.75;67.35
70407;BME280;57821;52.202;0.154;2023-07-22T00:47:13;101320.41;;;16.74;67.47
70407;BME280;57821;52.202;0.154;2023-07-22T00:49:41;101320.44;;;16.73;67.00
70407;BME280;57821;52.202;0.154;2023-07-22T00:52:07;101317.94;;;16.67;66.98
70407;BME280;57821;52.202;0.154;2023-07-22T00:54:34;101311.94;;;16.62;66.96
70407;BME280;57821;52.202;0.154;2023-07-22T00:57:01;101306.75;;;16.59;66.67
70407;BME280;57821;52.202;0.154;2023-07-22T00:59:28;101314.66;;;16.56;66.53
70407;BME280;57821;52.202;0.154;2023-07-22T01:01:54;101299.06;;;16.50;66.36
70407;BME280;57821;52.202;0.154;2023-07-22T01:04:22;101298.28;;;16.44;66.50
70407;BME280;57821;52.202;0.154;2023-07-22T01:06:51;101306.22;;;16.41;66.20
70407;BME280;57821;52.202;0.154;2023-07-22T01:09:17;101305.44;;;16.36;66.14
70407;BME280;57821;52.202;0.154;2023-07-22T01:11:44;101305.47;;;16.33;65.97
70407;BME280;57821;52.202;0.154;2023-07-22T01:14:11;101304.72;;;16.28;66.14
70407;BME280;57821;52.202;0.154;2023-07-22T01:16:37;101296.00;;;16.26;65.95
70407;BME280;57821;52.202;0.154;2023-07-22T01:19:05;101292.59;;;16.23;65.86
70407;BME280;57821;52.202;0.154;2023-07-22T01:21:32;101286.63;;;16.16;65.94
70407;BME280;57821;52.202;0.154;2023-07-22T01:23:59;101285.78;;;16.14;65.77
70407;BME280;57821;52.202;0.154;2023-07-22T01:26:26;101285.88;;;16.08;66.56
70407;BME280;57821;52.202;0.154;2023-07-22T01:29:04;101271.25;;;15.98;66.28
70407;BME280;57821;52.202;0.154;2023-07-22T01:31:34;101264.28;;;15.97;66.35
70407;BME280;57821;52.202;0.154;2023-07-22T01:34:01;101270.47;;;15.93;66.43
70407;BME280;57821;52.202;0.154;2023-07-22T01:36:28;101270.53;;;15.90;66.63
70407;BME280;57821;52.202;0.154;2023-07-22T01:38:54;101266.22;;;15.87;66.75
70407;BME280;57821;52.202;0.154;2023-07-22T01:41:21;101269.72;;;15.85;66.88
70407;BME280;57821;52.202;0.154;2023-07-22T01:43:48;101261.94;;;15.82;66.69
70407;BME280;57821;52.202;0.154;2023-07-22T01:46:15;101261.97;;;15.79;67.17
70407;BME280;57821;52.202;0.154;2023-07-22T01:48:41;101258.53;;;15.78;67.09
70407;BME280;57821;52.202;0.154;2023-07-22T01:51:08;101262.91;;;15.76;67.28
70407;BME280;57821;52.202;0.154;2023-07-22T01:53:34;101257.72;;;15.75;67.06
70407;BME280;57821;52.202;0.154;2023-07-22T01:56:01;101257.72;;;15.73;67.23
70407;BME280;57821;52.202;0.154;2023-07-22T01:58:28;101246.47;;;15.70;67.37
70407;BME280;57821;52.202;0.154;2023-07-22T02:00:54;101251.63;;;15.73;67.42
70407;BME280;57821;52.202;0.154;2023-07-22T02:03:21;101254.25;;;15.73;67.75
70407;BME280;57821;52.202;0.154;2023-07-22T02:05:48;101255.16;;;15.72;67.97
70407;BME280;57821;52.202;0.154;2023-07-22T02:08:14;101248.19;;;15.71;67.91
70407;BME280;57821;52.202;0.154;2023-07-22T02:10:41;101244.69;;;15.72;67.89
70407;BME280;57821;52.202;0.154;2023-07-22T02:13:08;101247.31;;;15.72;68.47
70407;BME280;57821;52.202;0.154;2023-07-22T02:15:35;101244.75;;;15.67;68.28
70407;BME280;57821;52.202;0.154;2023-07-22T02:18:01;101243.94;;;15.67;68.42
70407;BME280;57821;52.202;0.154;2023-07-22T02:20:28;101243.94;;;15.65;68.72
70407;BME280;57821;52.202;0.154;2023-07-22T02:22:55;101240.47;;;15.63;69.16
70407;BME280;57821;52.202;0.154;2023-07-22T02:25:21;101244.84;;;15.63;68.97
70407;BME280;57821;52.202;0.154;2023-07-22T02:27:48;101235.25;;;15.63;69.45
70407;BME280;57821;52.202;0.154;2023-07-22T02:30:15;101243.09;;;15.61;69.72
70407;BME280;57821;52.202;0.154;2023-07-22T02:32:41;101241.41;;;15.60;69.02
70407;BME280;57821;52.202;0.154;2023-07-22T02:35:09;101232.72;;;15.58;69.59
70407;BME280;57821;52.202;0.154;2023-07-22T02:37:37;101232.81;;;15.52;69.77
70407;BME280;57821;52.202;0.154;2023-07-22T02:40:04;101231.88;;;15.56;69.81
70407;BME280;57821;52.202;0.154;2023-07-22T02:42:31;101232.75;;;15.55;70.18
70407;BME280;57821;52.202;0.154;2023-07-22T02:44:57;101234.56;;;15.53;70.18
70407;BME280;57821;52.202;0.154;2023-07-22T02:47:24;101234.56;;;15.53;70.19
70407;BME280;57821;52.202;0.154;2023-07-22T02:49:51;101232.81;;;15.52;70.20
70407;BME280;57821;52.202;0.154;2023-07-22T02:52:17;101222.38;;;15.49;70.51
70407;BME280;57821;52.202;0.154;2023-07-22T02:55:13;101227.66;;;15.48;71.16
70407;BME280;57821;52.202;0.154;2023-07-22T02:57:40;101228.53;;;15.47;70.49
70407;BME280;57821;52.202;0.154;2023-07-22T03:00:08;101224.19;;;15.44;70.82
70407;BME280;57821;52.202;0.154;2023-07-22T03:02:35;101222.47;;;15.43;71.09
70407;BME280;57821;52.202;0.154;2023-07-22T03:05:04;101224.28;;;15.38;70.92
70407;BME280;57821;52.202;0.154;2023-07-22T03:07:31;101226.91;;;15.38;71.09
70407;BME280;57821;52.202;0.154;2023-07-22T03:09:58;101229.50;;;15.40;71.12
70407;BME280;57821;52.202;0.154;2023-07-22T03:12:24;101222.59;;;15.37;71.03
70407;BME280;57821;52.202;0.154;2023-07-22T03:14:51;101223.47;;;15.36;71.09
70407;BME280;57821;52.202;0.154;2023-07-22T03:17:18;101231.34;;;15.33;71.22
70407;BME280;57821;52.202;0.154;2023-07-22T03:19:45;101224.38;;;15.32;71.51
70407;BME280;57821;52.202;0.154;2023-07-22T03:22:17;101225.34;;;15.28;71.50
70407;BME280;57821;52.202;0.154;2023-07-22T03:24:45;101223.59;;;15.29;71.67
70407;BME280;57821;52.202;0.154;2023-07-22T03:27:13;101216.66;;;15.26;71.55
70407;BME280;57821;52.202;0.154;2023-07-22T03:29:41;101220.97;;;15.29;71.58
70407;BME280;57821;52.202;0.154;2023-07-22T03:32:08;101218.38;;;15.29;71.40
70407;BME280;57821;52.202;0.154;2023-07-22T03:34:35;101226.19;;;15.30;71.59
70407;BME280;57821;52.202;0.154;2023-07-22T03:37:01;101221.84;;;15.29;71.32
70407;BME280;57821;52.202;0.154;2023-07-22T03:39:28;101224.47;;;15.28;71.57
70407;BME280;57821;52.202;0.154;2023-07-22T03:41:55;101221.06;;;15.24;71.50
70407;BME280;57821;52.202;0.154;2023-07-22T03:44:21;101221.94;;;15.21;71.33
70407;BME280;57821;52.202;0.154;2023-07-22T03:46:48;101224.56;;;15.20;71.50
70407;BME280;57821;52.202;0.154;2023-07-22T03:49:14;101225.50;;;15.19;71.60
70407;BME280;57821;52.202;0.154;2023-07-22T03:51:41;101218.53;;;15.18;71.69
70407;BME280;57821;52.202;0.154;2023-07-22T03:54:08;101214.13;;;15.20;71.37
70407;BME280;57821;52.202;0.154;2023-07-22T03:56:34;101207.22;;;15.19;71.54
70407;BME280;57821;52.202;0.154;2023-07-22T03:59:01;101204.59;;;15.19;71.46
70407;BME280;57821;52.202;0.154;2023-07-22T04:01:27;101212.44;;;15.19;71.32
70407;BME280;57821;52.202;0.154;2023-07-22T04:03:54;101208.91;;;15.20;71.57
70407;BME280;57821;52.202;0.154;2023-07-22T04:06:21;101208.03;;;15.21;71.56
70407;BME280;57821;52.202;0.154;2023-07-22T04:08:48;101208.88;;;15.21;71.50
70407;BME280;57821;52.202;0.154;2023-07-22T04:11:14;101201.03;;;15.23;71.37
70407;BME280;57821;52.202;0.154;2023-07-22T04:13:41;101201.91;;;15.22;71.38
70407;BME280;57821;52.202;0.154;2023-07-22T04:16:07;101199.28;;;15.24;71.52
70407;BME280;57821;52.202;0.154;2023-07-22T04:18:34;101196.69;;;15.22;71.25
70407;BME280;57821;52.202;0.154;2023-07-22T04:21:01;101207.13;;;15.22;71.55
70407;BME280;57821;52.202;0.154;2023-07-22T04:23:28;101201.91;;;15.22;71.72
70407;BME280;57821;52.202;0.154;2023-07-22T04:25:54;101195.81;;;15.23;71.30
70407;BME280;57821;52.202;0.154;2023-07-22T04:28:21;101201.03;;;15.23;71.64
70407;BME280;57821;52.202;0.154;2023-07-22T04:30:56;101195.81;;;15.23;71.58
70407;BME280;57821;52.202;0.154;2023-07-22T04:33:22;101198.34;;;15.26;71.69
70407;BME280;57821;52.202;0.154;2023-07-22T04:35:49;101193.13;;;15.28;71.59
70407;BME280;57821;52.202;0.154;2023-07-22T04:38:16;101188.75;;;15.28;71.80
70407;BME280;57821;52.202;0.154;2023-07-22T04:40:43;101186.13;;;15.30;71.87
70407;BME280;57821;52.202;0.154;2023-07-22T04:43:09;101179.09;;;15.32;71.82
70407;BME280;57821;52.202;0.154;2023-07-22T04:45:36;101176.47;;;15.33;71.77
70407;BME280;57821;52.202;0.154;2023-07-22T04:48:03;101172.09;;;15.35;71.40
70407;BME280;57821;52.202;0.154;2023-07-22T04:50:29;101181.63;;;15.38;71.89
70407;BME280;57821;52.202;0.154;2023-07-22T04:52:56;101171.13;;;15.41;71.25
70407;BME280;57821;52.202;0.154;2023-07-22T04:55:22;101177.22;;;15.41;71.60
70407;BME280;57821;52.202;0.154;2023-07-22T04:57:49;101177.22;;;15.43;71.57
70407;BME280;57821;52.202;0.154;2023-07-22T05:00:16;101167.69;;;15.39;71.37
70407;BME280;57821;52.202;0.154;2023-07-22T05:02:46;101180.66;;;15.43;71.45
70407;BME280;57821;52.202;0.154;2023-07-22T05:05:13;101177.22;;;15.41;71.28
70407;BME280;57821;52.202;0.154;2023-07-22T05:07:39;101178.97;;;15.42;71.45
70407;BME280;57821;52.202;0.154;2023-07-22T05:10:07;101180.66;;;15.43;71.63
70407;BME280;57821;52.202;0.154;2023-07-22T05:12:34;101170.19;;;15.43;71.09
70407;BME280;57821;52.202;0.154;2023-07-22T05:15:01;101164.94;;;15.46;71.18
70407;BME280;57821;52.202;0.154;2023-07-22T05:17:27;101170.97;;;15.50;71.30
70407;BME280;57821;52.202;0.154;2023-07-22T05:19:54;101169.22;;;15.52;71.13
70407;BME280;57821;52.202;0.154;2023-07-22T05:22:20;101168.28;;;15.56;71.08
70407;BME280;57821;52.202;0.154;2023-07-22T05:24:47;101157.81;;;15.57;71.02
70407;BME280;57821;52.202;0.154;2023-07-22T05:27:14;101164.69;;;15.61;70.95
70407;BME280;57821;52.202;0.154;2023-07-22T05:29:40;101166.44;;;15.61;70.98
70407;BME280;57821;52.202;0.154;2023-07-22T05:32:07;101156.84;;;15.61;71.13
70407;BME280;57821;52.202;0.154;2023-07-22T05:34:53;101148.16;;;15.61;71.08
70407;BME280;57821;52.202;0.154;2023-07-22T05:37:19;101147.25;;;15.64;71.07
70407;BME280;57821;52.202;0.154;2023-07-22T05:39:46;101143.75;;;15.65;71.41
70407;BME280;57821;52.202;0.154;2023-07-22T05:42:12;101139.38;;;15.67;71.38
70407;BME280;57821;52.202;0.154;2023-07-22T05:44:39;101132.44;;;15.64;71.15
70407;BME280;57821;52.202;0.154;2023-07-22T05:47:06;101139.31;;;15.68;71.36
70407;BME280;57821;52.202;0.154;2023-07-22T05:49:32;101141.88;;;15.71;71.27
70407;BME280;57821;52.202;0.154;2023-07-22T05:51:59;101141.88;;;15.71;71.31
70407;BME280;57821;52.202;0.154;2023-07-22T05:54:25;101141.03;;;15.71;71.55
70407;BME280;57821;52.202;0.154;2023-07-22T05:56:53;101153.13;;;15.75;71.31
70407;BME280;57821;52.202;0.154;2023-07-22T05:59:20;101154.88;;;15.76;71.15
70407;BME280;57821;52.202;0.154;2023-07-22T06:01:47;101149.63;;;15.76;71.51
70407;BME280;57821;52.202;0.154;2023-07-22T06:04:14;101141.78;;;15.77;71.56
70407;BME280;57821;52.202;0.154;2023-07-22T06:06:41;101142.63;;;15.78;71.79
70407;BME280;57821;52.202;0.154;2023-07-22T06:09:08;101144.31;;;15.80;71.58
70407;BME280;57821;52.202;0.154;2023-07-22T06:11:34;101140.78;;;15.83;71.88
70407;BME280;57821;52.202;0.154;2023-07-22T06:14:01;101139.00;;;15.85;71.74
70407;BME280;57821;52.202;0.154;2023-07-22T06:16:28;101139.78;;;15.90;71.64
70407;BME280;57821;52.202;0.154;2023-07-22T06:18:55;101129.25;;;15.93;71.97
70407;BME280;57821;52.202;0.154;2023-07-22T06:21:21;101137.88;;;15.98;71.98
70407;BME280;57821;52.202;0.154;2023-07-22T06:23:48;101138.72;;;15.98;71.62
70407;BME280;57821;52.202;0.154;2023-07-22T06:26:14;101142.13;;;16.02;72.04
70407;BME280;57821;52.202;0.154;2023-07-22T06:28:41;101127.28;;;16.04;72.09
70407;BME280;57821;52.202;0.154;2023-07-22T06:31:07;101122.00;;;16.07;72.04
70407;BME280;57821;52.202;0.154;2023-07-22T06:33:34;101119.31;;;16.10;71.83
70407;BME280;57821;52.202;0.154;2023-07-22T06:36:00;101123.59;;;16.14;72.10
70407;BME280;57821;52.202;0.154;2023-07-22T06:38:27;101121.72;;;16.19;72.28
70407;BME280;57821;52.202;0.154;2023-07-22T06:40:54;101123.44;;;16.20;72.22
70407;BME280;57821;52.202;0.154;2023-07-22T06:43:20;101130.28;;;16.27;72.79
70407;BME280;57821;52.202;0.154;2023-07-22T06:45:47;101125.06;;;16.27;72.82
70407;BME280;57821;52.202;0.154;2023-07-22T06:48:14;101131.19;;;16.26;73.05
70407;BME280;57821;52.202;0.154;2023-07-22T06:50:47;101122.53;;;16.23;73.79
70407;BME280;57821;52.202;0.154;2023-07-22T06:53:13;101119.81;;;16.27;73.52
70407;BME280;57821;52.202;0.154;2023-07-22T06:55:48;101118.22;;;16.20;73.96
70407;BME280;57821;52.202;0.154;2023-07-22T06:58:15;101119.91;;;16.24;73.92
70407;BME280;57821;52.202;0.154;2023-07-22T07:00:41;101118.09;;;16.26;74.06
70407;BME280;57821;52.202;0.154;2023-07-22T07:03:08;101121.53;;;16.28;74.58
70407;BME280;57821;52.202;0.154;2023-07-22T07:05:34;101113.59;;;16.33;74.80
70407;BME280;57821;52.202;0.154;2023-07-22T07:08:01;101124.78;;;16.39;74.79
70407;BME280;57821;52.202;0.154;2023-07-22T07:10:28;101126.38;;;16.47;74.63
70407;BME280;57821;52.202;0.154;2023-07-22T07:12:54;101117.59;;;16.49;74.97
70407;BME280;57821;52.202;0.154;2023-07-22T07:15:21;101130.50;;;16.57;75.32
70407;BME280;57821;52.202;0.154;2023-07-22T07:17:47;101127.88;;;16.60;74.52
70407;BME280;57821;52.202;0.154;2023-07-22T07:20:14;101124.41;;;16.59;74.71
70407;BME280;57821;52.202;0.154;2023-07-22T07:22:41;101120.84;;;16.62;74.85
70407;BME280;57821;52.202;0.154;2023-07-22T07:25:07;101119.06;;;16.64;74.97
70407;BME280;57821;52.202;0.154;2023-07-22T07:27:34;101119.06;;;16.64;74.18
70407;BME280;57821;52.202;0.154;2023-07-22T07:30:00;101114.72;;;16.63;74.36
70407;BME280;57821;52.202;0.154;2023-07-22T07:32:27;101122.66;;;16.60;74.44
70407;BME280;57821;52.202;0.154;2023-07-22T07:34:54;101125.16;;;16.64;74.31
70407;BME280;57821;52.202;0.154;2023-07-22T07:37:22;101113.03;;;16.59;74.47
70407;BME280;57821;52.202;0.154;2023-07-22T07:39:49;101119.84;;;16.67;74.46
70407;BME280;57821;52.202;0.154;2023-07-22T07:42:15;101125.06;;;16.67;74.27
70407;BME280;57821;52.202;0.154;2023-07-22T07:44:42;101117.19;;;16.69;74.76
70407;BME280;57821;52.202;0.154;2023-07-22T07:47:08;101113.69;;;16.70;74.22
70407;BME280;57821;52.202;0.154;2023-07-22T07:49:35;101122.28;;;16.75;74.21
70407;BME280;57821;52.202;0.154;2023-07-22T07:52:02;101114.34;;;16.78;74.20
70407;BME280;57821;52.202;0.154;2023-07-22T07:54:28;101108.22;;;16.79;74.60
70407;BME280;57821;52.202;0.154;2023-07-22T07:56:58;101115.94;;;16.83;74.59
70407;BME280;57821;52.202;0.154;2023-07-22T07:59:25;101106.28;;;16.87;74.79
70407;BME280;57821;52.202;0.154;2023-07-22T08:01:51;101097.44;;;16.91;75.01
70407;BME280;57821;52.202;0.154;2023-07-22T08:04:18;101106.16;;;16.92;75.14
70407;BME280;57821;52.202;0.154;2023-07-22T08:06:44;101093.09;;;16.90;75.50
70407;BME280;57821;52.202;0.154;2023-07-22T08:09:11;101096.59;;;16.91;75.13
70407;BME280;57821;52.202;0.154;2023-07-22T08:11:38;101086.97;;;16.91;76.07
70407;BME280;57821;52.202;0.154;2023-07-22T08:14:04;101087.91;;;16.89;75.69
70407;BME280;57821;52.202;0.154;2023-07-22T08:16:31;101080.00;;;16.90;75.57
70407;BME280;57821;52.202;0.154;2023-07-22T08:18:58;101087.84;;;16.90;75.94
70407;BME280;57821;52.202;0.154;2023-07-22T08:21:25;101087.91;;;16.89;75.94
70407;BME280;57821;52.202;0.154;2023-07-22T08:23:51;101092.28;;;16.88;75.85
70407;BME280;57821;52.202;0.154;2023-07-22T08:26:18;101085.25;;;16.90;76.42
70407;BME280;57821;52.202;0.154;2023-07-22T08:28:45;101081.72;;;16.91;76.21
70407;BME280;57821;52.202;0.154;2023-07-22T08:31:11;101085.94;;;16.97;75.81
70407;BME280;57821;52.202;0.154;2023-07-22T08:33:38;101079.72;;;17.01;76.54
70407;BME280;57821;52.202;0.154;2023-07-22T08:36:08;101081.38;;;17.06;75.71
70407;BME280;57821;52.202;0.154;2023-07-22T08:38:35;101077.75;;;17.10;76.34
70407;BME280;57821;52.202;0.154;2023-07-22T08:41:01;101078.41;;;17.18;76.37
70407;BME280;57821;52.202;0.154;2023-07-22T08:43:29;101079.09;;;17.27;76.60
70407;BME280;57821;52.202;0.154;2023-07-22T08:46:00;101087.53;;;17.38;76.45
70407;BME280;57821;52.202;0.154;2023-07-22T08:48:30;101085.47;;;17.49;75.20
70407;BME280;57821;52.202;0.154;2023-07-22T08:51:04;101087.00;;;17.57;75.12
70407;BME280;57821;52.202;0.154;2023-07-22T08:53:31;101088.53;;;17.66;74.09
70407;BME280;57821;52.202;0.154;2023-07-22T08:55:57;101070.03;;;17.71;73.82
70407;BME280;57821;52.202;0.154;2023-07-22T08:58:25;101074.22;;;17.78;73.77
70407;BME280;57821;52.202;0.154;2023-07-22T09:00:52;101065.13;;;17.89;74.02
70407;BME280;57821;52.202;0.154;2023-07-22T09:03:20;101069.09;;;18.04;73.21
70407;BME280;57821;52.202;0.154;2023-07-22T09:05:47;101069.59;;;18.17;71.93
70407;BME280;57821;52.202;0.154;2023-07-22T09:08:14;101065.78;;;18.27;70.21
70407;BME280;57821;52.202;0.154;2023-07-22T09:10:41;101059.44;;;18.34;69.66
70407;BME280;57821;52.202;0.154;2023-07-22T09:13:08;101059.19;;;18.41;69.90
70407;BME280;57821;52.202;0.154;2023-07-22T09:15:36;101062.47;;;18.48;69.21
70407;BME280;57821;52.202;0.154;2023-07-22T09:18:04;101060.47;;;18.58;68.58
70407;BME280;57821;52.202;0.154;2023-07-22T09:20:31;101064.69;;;18.63;67.82
70407;BME280;57821;52.202;0.154;2023-07-22T09:22:59;101052.25;;;18.68;67.59
70407;BME280;57821;52.202;0.154;2023-07-22T09:25:39;101058.22;;;18.73;66.24
70407;BME280;57821;52.202;0.154;2023-07-22T09:28:05;101055.38;;;18.79;66.62
70407;BME280;57821;52.202;0.154;2023-07-22T09:30:34;101050.78;;;18.86;66.56
70407;BME280;57821;52.202;0.154;2023-07-22T09:33:03;101051.53;;;18.90;66.09
70407;BME280;57821;52.202;0.154;2023-07-22T09:35:30;101061.63;;;19.02;66.03
70407;BME280;57821;52.202;0.154;2023-07-22T09:37:58;101047.69;;;19.00;65.60
70407;BME280;57821;52.202;0.154;2023-07-22T09:40:26;101051.00;;;19.05;65.41
70407;BME280;57821;52.202;0.154;2023-07-22T09:42:55;101044.34;;;18.95;65.04
70407;BME280;57821;52.202;0.154;2023-07-22T09:45:24;101048.66;;;18.97;64.88
70407;BME280;57821;52.202;0.154;2023-07-22T09:47:53;101059.06;;;19.00;65.25
70407;BME280;57821;52.202;0.154;2023-07-22T09:50:22;101058.31;;;18.97;65.18
70407;BME280;57821;52.202;0.154;2023-07-22T09:52:51;101063.66;;;18.94;65.29
70407;BME280;57821;52.202;0.154;2023-07-22T09:55:20;101055.09;;;18.87;65.00
70407;BME280;57821;52.202;0.154;2023-07-22T09:57:52;101056.78;;;18.90;64.68
70407;BME280;57821;52.202;0.154;2023-07-22T10:00:19;101062.16;;;18.86;64.14
70407;BME280;57821;52.202;0.154;2023-07-22T10:02:48;101059.63;;;18.83;64.38
70407;BME280;57821;52.202;0.154;2023-07-22T10:05:17;101061.53;;;18.78;64.31
70407;BME280;57821;52.202;0.154;2023-07-22T10:07:46;101049.56;;;18.70;64.92
70407;BME280;57821;52.202;0.154;2023-07-22T10:10:16;101051.44;;;18.66;65.49
70407;BME280;57821;52.202;0.154;2023-07-22T10:12:43;101051.38;;;18.68;64.78
70407;BME280;57821;52.202;0.154;2023-07-22T10:15:12;101053.13;;;18.69;65.50
70407;BME280;57821;52.202;0.154;2023-07-22T10:17:40;101058.38;;;18.69;65.61
70407;BME280;57821;52.202;0.154;2023-07-22T10:20:09;101038.28;;;18.66;65.60
70407;BME280;57821;52.202;0.154;2023-07-22T10:22:37;101054.59;;;18.76;65.42
70407;BME280;57821;52.202;0.154;2023-07-22T10:25:05;101048.50;;;18.75;64.97
70407;BME280;57821;52.202;0.154;2023-07-22T10:27:32;101045.13;;;18.72;64.36
70407;BME280;57821;52.202;0.154;2023-07-22T10:29:59;101044.38;;;18.68;63.87
70407;BME280;57821;52.202;0.154;2023-07-22T10:32:38;101032.34;;;18.61;64.30
70407;BME280;57821;52.202;0.154;2023-07-22T10:35:09;101040.97;;;18.65;64.19
70407;BME280;57821;52.202;0.154;2023-07-22T10:37:37;101043.56;;;18.66;64.42
70407;BME280;57821;52.202;0.154;2023-07-22T10:40:19;101034.78;;;18.67;64.87
70407;BME280;57821;52.202;0.154;2023-07-22T10:42:52;101040.03;;;18.67;63.86
70407;BME280;57821;52.202;0.154;2023-07-22T10:45:27;101033.19;;;18.62;64.61
70407;BME280;57821;52.202;0.154;2023-07-22T10:48:08;101033.28;;;18.59;64.34
70407;BME280;57821;52.202;0.154;2023-07-22T10:50:52;101019.44;;;18.52;64.42
70407;BME280;57821;52.202;0.154;2023-07-22T10:56:20;101023.00;;;18.51;66.47
70407;BME280;57821;52.202;0.154;2023-07-22T11:06:40;101017.31;;;18.37;66.42
70407;BME280;57821;52.202;0.154;2023-07-22T11:12:08;101002.78;;;18.27;66.71
70407;BME280;57821;52.202;0.154;2023-07-22T11:14:37;101007.94;;;18.30;67.28
70407;BME280;57821;52.202;0.154;2023-07-22T11:17:05;101007.13;;;18.28;66.71
70407;BME280;57821;52.202;0.154;2023-07-22T11:19:32;101003.72;;;18.24;66.65
70407;BME280;57821;52.202;0.154;2023-07-22T11:21:59;100996.00;;;18.20;67.03
70407;BME280;57821;52.202;0.154;2023-07-22T11:24:26;100998.75;;;18.17;67.27
70407;BME280;57821;52.202;0.154;2023-07-22T11:26:53;100997.00;;;18.16;67.76
70407;BME280;57821;52.202;0.154;2023-07-22T11:29:20;100996.13;;;18.17;68.37
70407;BME280;57821;52.202;0.154;2023-07-22T11:31:48;100994.41;;;18.16;68.62
70407;BME280;57821;52.202;0.154;2023-07-22T11:34:20;100986.53;;;18.16;68.69
70407;BME280;57821;52.202;0.154;2023-07-22T11:36:48;100988.16;;;18.18;69.15
70407;BME280;57821;52.202;0.154;2023-07-22T11:39:19;100974.16;;;18.19;69.02
70407;BME280;57821;52.202;0.154;2023-07-22T11:41:47;100966.28;;;18.19;68.67
70407;BME280;57821;52.202;0.154;2023-07-22T11:44:16;100970.59;;;18.22;68.78
70407;BME280;57821;52.202;0.154;2023-07-22T11:46:54;100974.94;;;18.23;69.06
70407;BME280;57821;52.202;0.154;2023-07-22T11:51:54;100951.38;;;18.20;69.93
70407;BME280;57821;52.202;0.154;2023-07-22T11:54:21;100965.84;;;18.33;69.33
70407;BME280;57821;52.202;0.154;2023-07-22T11:56:48;100973.72;;;18.33;69.95
70407;BME280;57821;52.202;0.154;2023-07-22T11:59:15;100967.47;;;18.37;69.59
70407;BME280;57821;52.202;0.154;2023-07-22T12:01:45;100971.81;;;18.38;70.25
70407;BME280;57821;52.202;0.154;2023-07-22T12:04:13;100956.13;;;18.35;70.28
70407;BME280;57821;52.202;0.154;2023-07-22T12:06:41;100957.78;;;18.39;70.54
70407;BME280;57821;52.202;0.154;2023-07-22T12:09:09;100961.31;;;18.38;70.87
70407;BME280;57821;52.202;0.154;2023-07-22T12:11:36;100949.81;;;18.40;71.08
70407;BME280;57821;52.202;0.154;2023-07-22T12:14:12;100961.06;;;18.45;71.97
70407;BME280;57821;52.202;0.154;2023-07-22T12:16:42;100958.28;;;18.50;71.75
70407;BME280;57821;52.202;0.154;2023-07-22T12:19:09;100952.91;;;18.53;71.16
70407;BME280;57821;52.202;0.154;2023-07-22T12:21:36;100952.00;;;18.56;71.84
70407;BME280;57821;52.202;0.154;2023-07-22T12:24:02;100957.13;;;18.59;71.12
70407;BME280;57821;52.202;0.154;2023-07-22T12:26:29;100950.94;;;18.61;71.35
70407;BME280;57821;52.202;0.154;2023-07-22T12:28:56;100959.63;;;18.63;71.98
70407;BME280;57821;52.202;0.154;2023-07-22T12:31:23;100954.47;;;18.60;71.36
70407;BME280;57821;52.202;0.154;2023-07-22T12:33:49;100953.72;;;18.57;71.35
70407;BME280;57821;52.202;0.154;2023-07-22T12:36:16;100948.56;;;18.52;72.30
70407;BME280;57821;52.202;0.154;2023-07-22T12:38:42;100959.22;;;18.47;71.46
70407;BME280;57821;52.202;0.154;2023-07-22T12:41:09;100953.44;;;18.38;70.81
70407;BME280;57821;52.202;0.154;2023-07-22T12:43:35;100946.75;;;18.28;70.68
70407;BME280;57821;52.202;0.154;2023-07-22T12:46:02;100953.19;;;18.18;68.99
